Time;durP1;ratioP1;P1;durP2;ratioP2;P2;SDS_P1;SDS_P2;PMS_P1;PMS_P2;Temp;Humidity;BMP_temperature;BMP_pressure;BME280_temperature;BME280_humidity;BME280_pressure;Samples;Min_cycle;Max_cycle;Signal;HPM_P1;HPM_P2
2023/12/19 00:00:47;;;;;;;14.35;9.05;;;;;;;;;;6294397;28;20055;-73
2023/12/19 00:03:49;;;;;;;22.30;10.00;;;;;;;;;;6261570;28;20051;-74
2023/12/19 00:06:51;;;;;;;11.90;7.75;;;;;;;;;;6285398;28;20185;-72
2023/12/19 00:09:53;;;;;;;13.15;8.93;;;;;;;;;;6321081;28;20126;-73
2023/12/19 00:12:56;;;;;;;11.90;7.00;;;;;;;;;;6331026;28;20047;-74
2023/12/19 00:15:58;;;;;;;14.50;7.72;;;;;;;;;;6294136;28;20043;-73
2023/12/19 00:19:00;;;;;;;19.33;12.07;;;;;;;;;;6300255;28;20598;-73
2023/12/19 00:22:03;;;;;;;23.27;11.15;;;;;;;;;;6264906;28;20112;-73
2023/12/19 00:25:05;;;;;;;16.85;10.40;;;;;;;;;;6300906;28;20031;-73
2023/12/19 00:28:09;;;;;;;21.48;14.07;;;;;;;;;;6311769;28;20043;-73
2023/12/19 00:31:22;;;;;;;24.25;14.57;;;;;;;;;;6270533;28;20059;-73
2023/12/19 00:34:24;;;;;;;;;;;;;;;;;;6272528;28;20052;-73
2023/12/19 00:37:28;;;;;;;30.23;14.65;;;;;;;;;;6311193;28;20315;-73
2023/12/19 00:40:31;;;;;;;27.02;14.52;;;;;;;;;;6312206;28;20048;-73
2023/12/19 00:43:34;;;;;;;33.20;16.58;;;;;;;;;;6277172;28;20048;-73
2023/12/19 00:46:36;;;;;;;26.17;14.55;;;;;;;;;;6295514;28;20196;-72
2023/12/19 00:49:38;;;;;;;25.95;13.40;;;;;;;;;;6298008;28;20046;-72
2023/12/19 00:52:41;;;;;;;25.27;14.10;;;;;;;;;;6314038;28;20135;-73
2023/12/19 00:55:43;;;;;;;20.98;11.57;;;;;;;;;;6303767;28;20089;-72
2023/12/19 00:58:45;;;;;;;17.95;10.73;;;;;;;;;;6312940;28;20028;-72
2023/12/19 01:01:47;;;;;;;22.30;10.05;;;;;;;;;;6294347;28;20430;-72
2023/12/19 01:04:50;;;;;;;15.75;10.07;;;;;;;;;;6312822;28;20055;-73
2023/12/19 01:07:52;;;;;;;21.85;12.68;;;;;;;;;;6281870;28;20182;-73
2023/12/19 01:10:55;;;;;;;20.63;10.55;;;;;;;;;;6312992;28;20142;-72
2023/12/19 01:13:57;;;;;;;18.33;13.30;;;;;;;;;;6277887;28;20059;-72
2023/12/19 01:16:59;;;;;;;19.10;10.55;;;;;;;;;;6309665;28;20043;-72
2023/12/19 01:20:01;;;;;;;23.20;10.82;;;;;;;;;;6292902;28;20051;-72
2023/12/19 01:23:03;;;;;;;21.90;11.00;;;;;;;;;;6307839;28;20038;-72
2023/12/19 01:26:05;;;;;;;19.92;10.73;;;;;;;;;;6313489;28;20039;-73
2023/12/19 01:29:17;;;;;;;23.30;12.90;;;;;;;;;;6281600;28;20043;-72
2023/12/19 01:32:19;;;;;;;20.30;9.57;;;;;;;;;;6296500;28;20576;-73
2023/12/19 01:35:21;;;;;;;24.85;13.27;;;;;;;;;;6273296;28;20152;-72
2023/12/19 01:38:23;;;;;;;22.10;12.20;;;;;;;;;;6310466;28;20146;-72
2023/12/19 01:41:25;;;;;;;18.60;12.07;;;;;;;;;;6292086;28;20056;-73
2023/12/19 01:44:28;;;;;;;21.33;10.82;;;;;;;;;;6311123;28;20036;-72
2023/12/19 01:47:30;;;;;;;21.13;11.38;;;;;;;;;;6291807;28;20043;-72
2023/12/19 01:50:32;;;;;;;14.05;9.93;;;;;;;;;;6276772;28;20497;-72
2023/12/19 01:53:34;;;;;;;12.27;8.48;;;;;;;;;;6307481;28;20064;-72
2023/12/19 01:56:36;;;;;;;18.63;8.55;;;;;;;;;;6310080;28;20777;-72
2023/12/19 01:59:38;;;;;;;20.35;10.38;;;;;;;;;;6287743;28;20624;-72
2023/12/19 02:02:40;;;;;;;21.17;12.10;;;;;;;;;;6296679;28;20044;-73
2023/12/19 02:05:44;;;;;;;15.88;9.85;;;;;;;;;;6284152;28;20047;-71
2023/12/19 02:08:46;;;;;;;17.13;10.93;;;;;;;;;;6283894;28;20052;-72
2023/12/19 02:11:48;;;;;;;17.90;10.35;;;;;;;;;;6298777;28;20051;-72
2023/12/19 02:14:50;;;;;;;18.70;11.43;;;;;;;;;;6282167;28;20048;-72
2023/12/19 02:17:52;;;;;;;20.80;8.13;;;;;;;;;;6333614;28;20048;-72
2023/12/19 02:20:54;;;;;;;15.27;9.27;;;;;;;;;;6279341;28;20044;-72
2023/12/19 02:23:57;;;;;;;17.10;9.05;;;;;;;;;;6292760;28;20062;-72
2023/12/19 02:26:59;;;;;;;19.30;11.15;;;;;;;;;;6297952;28;20134;-72
2023/12/19 02:30:01;;;;;;;14.98;9.65;;;;;;;;;;6291453;28;20458;-72
2023/12/19 02:33:05;;;;;;;10.70;7.47;;;;;;;;;;6287774;28;20158;-73
2023/12/19 02:36:08;;;;;;;14.73;10.25;;;;;;;;;;6315245;28;20408;-72
2023/12/19 02:39:10;;;;;;;14.75;7.90;;;;;;;;;;6318703;28;20123;-72
2023/12/19 02:42:12;;;;;;;11.32;7.57;;;;;;;;;;6298893;28;20048;-73
2023/12/19 02:45:15;;;;;;;13.45;8.95;;;;;;;;;;6300977;28;20063;-72
2023/12/19 02:48:17;;;;;;;26.23;13.07;;;;;;;;;;6272878;28;20054;-72
2023/12/19 02:51:20;;;;;;;16.23;10.00;;;;;;;;;;6315362;28;20044;-71
2023/12/19 02:54:22;;;;;;;23.67;11.73;;;;;;;;;;6298791;28;20044;-73
2023/12/19 02:57:25;;;;;;;38.58;18.15;;;;;;;;;;6291781;28;20140;-73
2023/12/19 03:00:32;;;;;;;19.40;11.65;;;;;;;;;;6319230;28;20040;-73
2023/12/19 03:03:34;;;;;;;22.13;12.90;;;;;;;;;;6320129;28;20064;-74
2023/12/19 03:06:37;;;;;;;24.17;11.55;;;;;;;;;;6302006;28;20044;-74
2023/12/19 03:09:39;;;;;;;17.48;11.48;;;;;;;;;;6321370;28;20048;-73
2023/12/19 03:12:41;;;;;;;22.15;11.13;;;;;;;;;;6295997;28;21259;-73
2023/12/19 03:15:44;;;;;;;21.35;10.52;;;;;;;;;;6308704;28;20485;-73
2023/12/19 03:18:46;;;;;;;34.05;14.82;;;;;;;;;;6317346;28;20043;-73
2023/12/19 03:21:48;;;;;;;28.58;14.27;;;;;;;;;;6278901;28;20435;-73
2023/12/19 03:24:51;;;;;;;24.33;12.90;;;;;;;;;;6304932;28;20051;-73
2023/12/19 03:27:53;;;;;;;19.73;10.18;;;;;;;;;;6299735;28;20114;-73
2023/12/19 03:30:55;;;;;;;16.23;9.85;;;;;;;;;;6295681;28;20146;-73
2023/12/19 03:33:57;;;;;;;15.90;10.07;;;;;;;;;;6322170;27;20044;-73
2023/12/19 03:36:59;;;;;;;17.25;9.95;;;;;;;;;;6295329;28;20532;-73
2023/12/19 03:40:02;;;;;;;19.15;10.27;;;;;;;;;;6311160;28;20040;-73
2023/12/19 03:43:05;;;;;;;20.00;11.02;;;;;;;;;;6275120;28;20486;-73
2023/12/19 03:46:07;;;;;;;17.50;11.23;;;;;;;;;;6313806;28;20047;-73
2023/12/19 03:49:10;;;;;;;16.63;10.85;;;;;;;;;;6274817;28;20044;-73
2023/12/19 03:52:12;;;;;;;20.80;9.50;;;;;;;;;;6277939;28;20139;-74
2023/12/19 03:55:14;;;;;;;21.48;12.80;;;;;;;;;;6294422;28;20052;-73
2023/12/19 03:58:16;;;;;;;15.50;9.95;;;;;;;;;;6316836;28;20055;-74
2023/12/19 04:01:19;;;;;;;21.52;10.25;;;;;;;;;;6298949;28;20039;-73
2023/12/19 04:04:22;;;;;;;18.77;9.75;;;;;;;;;;6289796;28;20224;-73
2023/12/19 04:07:24;;;;;;;25.70;14.10;;;;;;;;;;6313094;28;20450;-74
2023/12/19 04:10:26;;;;;;;30.10;15.32;;;;;;;;;;6317604;28;20690;-73
2023/12/19 04:13:29;;;;;;;41.90;22.05;;;;;;;;;;6293042;28;20086;-74
2023/12/19 04:16:31;;;;;;;23.33;14.77;;;;;;;;;;6326914;28;20032;-73
2023/12/19 04:19:33;;;;;;;22.73;15.25;;;;;;;;;;6277140;28;20135;-74
2023/12/19 04:22:36;;;;;;;17.55;11.15;;;;;;;;;;6273424;28;20044;-73
2023/12/19 04:25:38;;;;;;;24.42;11.98;;;;;;;;;;6276487;28;20055;-74
2023/12/19 04:28:41;;;;;;;18.98;11.27;;;;;;;;;;6318156;28;20707;-73
2023/12/19 04:31:43;;;;;;;17.75;11.40;;;;;;;;;;6280643;28;20154;-74
2023/12/19 04:34:46;;;;;;;20.65;11.10;;;;;;;;;;6300658;28;20054;-73
2023/12/19 04:37:48;;;;;;;33.83;18.45;;;;;;;;;;6294035;28;20434;-73
2023/12/19 04:40:50;;;;;;;24.73;13.73;;;;;;;;;;6292857;28;20046;-73
2023/12/19 04:43:52;;;;;;;29.13;15.98;;;;;;;;;;6302123;28;20075;-73
2023/12/19 04:46:54;;;;;;;47.85;22.98;;;;;;;;;;6286935;28;20043;-73
2023/12/19 04:49:56;;;;;;;31.95;16.33;;;;;;;;;;6309237;28;20064;-73
2023/12/19 04:52:58;;;;;;;30.40;15.70;;;;;;;;;;6276790;28;20036;-73
2023/12/19 04:56:00;;;;;;;29.20;11.63;;;;;;;;;;6311836;28;20055;-73
2023/12/19 04:59:02;;;;;;;24.67;12.15;;;;;;;;;;6259420;28;20043;-74
2023/12/19 05:02:05;;;;;;;30.52;14.00;;;;;;;;;;6282716;28;20044;-73
2023/12/19 05:05:07;;;;;;;31.25;14.98;;;;;;;;;;6253394;28;20059;-73
2023/12/19 05:08:11;;;;;;;20.17;14.40;;;;;;;;;;6260080;28;20052;-73
2023/12/19 05:11:14;;;;;;;51.13;25.63;;;;;;;;;;6305442;28;20048;-73
2023/12/19 05:14:16;;;;;;;63.17;28.10;;;;;;;;;;6299763;28;20047;-73
2023/12/19 05:17:18;;;;;;;57.38;32.13;;;;;;;;;;6287598;28;20048;-73
2023/12/19 05:20:21;;;;;;;88.55;40.90;;;;;;;;;;6300425;28;20048;-73
2023/12/19 05:23:24;;;;;;;148.80;61.60;;;;;;;;;;6287715;28;20048;-73
2023/12/19 05:26:26;;;;;;;81.75;42.10;;;;;;;;;;6316665;28;20043;-74
2023/12/19 05:29:28;;;;;;;51.60;27.35;;;;;;;;;;6290324;28;20043;-73
2023/12/19 05:32:30;;;;;;;41.05;17.40;;;;;;;;;;6291107;28;20048;-74
2023/12/19 05:35:32;;;;;;;46.13;17.83;;;;;;;;;;6295854;28;20775;-74
2023/12/19 05:38:34;;;;;;;37.05;19.55;;;;;;;;;;6306838;28;20153;-73
2023/12/19 05:41:36;;;;;;;40.75;20.75;;;;;;;;;;6325837;28;20043;-73
2023/12/19 05:44:39;;;;;;;39.60;20.40;;;;;;;;;;6321791;28;20024;-75
2023/12/19 05:47:41;;;;;;;43.00;19.30;;;;;;;;;;6306752;28;20049;-74
2023/12/19 05:50:43;;;;;;;34.83;15.40;;;;;;;;;;6315635;28;20048;-76
2023/12/19 05:53:45;;;;;;;35.10;14.65;;;;;;;;;;6314875;28;20040;-75
2023/12/19 05:56:47;;;;;;;43.65;21.33;;;;;;;;;;6303830;28;20040;-76
2023/12/19 05:59:50;;;;;;;34.42;13.95;;;;;;;;;;6322636;28;20155;-75
2023/12/19 06:02:52;;;;;;;35.90;12.77;;;;;;;;;;6313126;28;20040;-75
2023/12/19 06:05:54;;;;;;;32.80;13.70;;;;;;;;;;6296464;28;20482;-75
2023/12/19 06:08:56;;;;;;;39.15;15.30;;;;;;;;;;6276434;28;20477;-74
2023/12/19 06:11:58;;;;;;;41.03;16.77;;;;;;;;;;6279771;28;20036;-74
2023/12/19 06:15:02;;;;;;;30.30;12.80;;;;;;;;;;6269480;28;20048;-75
2023/12/19 06:18:05;;;;;;;27.35;13.07;;;;;;;;;;6319060;28;20051;-76
2023/12/19 06:21:12;;;;;;;28.52;12.73;;;;;;;;;;6294797;28;20043;-76
2023/12/19 06:24:14;;;;;;;28.77;13.05;;;;;;;;;;6288976;28;20044;-76
2023/12/19 06:27:16;;;;;;;33.30;13.32;;;;;;;;;;6300059;28;20048;-74
2023/12/19 06:30:19;;;;;;;25.50;11.90;;;;;;;;;;6292921;28;20044;-74
2023/12/19 06:33:31;;;;;;;22.80;11.82;;;;;;;;;;6292147;28;20481;-74
2023/12/19 06:36:33;;;;;;;31.17;13.20;;;;;;;;;;6303915;28;20075;-75
2023/12/19 06:39:36;;;;;;;29.63;11.02;;;;;;;;;;6309377;28;20149;-75
2023/12/19 06:42:38;;;;;;;19.35;10.35;;;;;;;;;;6287281;28;20729;-74
2023/12/19 06:45:41;;;;;;;21.80;10.00;;;;;;;;;;6310102;28;20051;-74
2023/12/19 06:48:44;;;;;;;36.25;15.75;;;;;;;;;;6277294;28;20048;-74
2023/12/19 06:51:46;;;;;;;32.30;16.13;;;;;;;;;;6294355;28;20083;-75
2023/12/19 06:54:48;;;;;;;49.05;21.83;;;;;;;;;;6323572;28;20103;-74
2023/12/19 06:57:51;;;;;;;39.45;21.13;;;;;;;;;;6289575;28;20415;-75
2023/12/19 07:00:53;;;;;;;33.55;15.88;;;;;;;;;;6278701;28;20044;-74
2023/12/19 07:03:55;;;;;;;30.88;14.05;;;;;;;;;;6290520;28;20474;-73
2023/12/19 07:06:57;;;;;;;37.53;17.70;;;;;;;;;;6295131;28;20430;-74
2023/12/19 07:10:01;;;;;;;48.38;24.15;;;;;;;;;;6306760;28;20087;-73
2023/12/19 07:13:03;;;;;;;43.40;19.13;;;;;;;;;;6282983;28;20044;-74
2023/12/19 07:16:06;;;;;;;46.28;22.05;;;;;;;;;;6297897;28;20051;-73
2023/12/19 07:19:08;;;;;;;30.35;18.17;;;;;;;;;;6299436;28;20051;-73
2023/12/19 07:22:10;;;;;;;37.70;19.88;;;;;;;;;;6293728;28;20032;-73
2023/12/19 07:25:13;;;;;;;24.90;16.20;;;;;;;;;;6300718;28;20036;-73
2023/12/19 07:28:16;;;;;;;52.25;22.67;;;;;;;;;;6307051;28;20044;-73
2023/12/19 07:31:20;;;;;;;28.63;15.13;;;;;;;;;;6291460;28;20157;-73
2023/12/19 07:34:22;;;;;;;56.58;30.55;;;;;;;;;;6285106;28;20048;-73
2023/12/19 07:37:25;;;;;;;52.08;29.27;;;;;;;;;;6312448;28;20089;-74
2023/12/19 07:40:28;;;;;;;73.07;29.50;;;;;;;;;;6289433;28;20048;-74
2023/12/19 07:43:31;;;;;;;64.35;32.30;;;;;;;;;;6318159;28;20043;-74
2023/12/19 07:46:34;;;;;;;79.95;30.30;;;;;;;;;;6295495;28;20059;-74
2023/12/19 07:49:36;;;;;;;70.43;32.45;;;;;;;;;;6299303;28;20032;-74
2023/12/19 07:52:38;;;;;;;67.40;34.45;;;;;;;;;;6294401;28;20037;-75
2023/12/19 07:55:41;;;;;;;61.45;25.17;;;;;;;;;;6327840;28;20040;-74
2023/12/19 07:58:43;;;;;;;68.22;30.88;;;;;;;;;;6295279;28;20047;-75
2023/12/19 08:01:49;;;;;;;69.68;25.77;;;;;;;;;;6311602;28;20119;-73
2023/12/19 08:04:51;;;;;;;;;;;;;;;;;;6294761;28;20048;-75
2023/12/19 08:07:54;;;;;;;53.70;23.58;;;;;;;;;;6267460;28;20467;-74
2023/12/19 08:10:56;;;;;;;71.00;31.83;;;;;;;;;;6292352;28;20032;-74
2023/12/19 08:13:58;;;;;;;67.28;28.42;;;;;;;;;;6300216;28;20585;-74
2023/12/19 08:17:01;;;;;;;44.08;20.30;;;;;;;;;;6306227;28;20044;-74
2023/12/19 08:20:03;;;;;;;46.38;21.20;;;;;;;;;;6309075;28;20055;-74
2023/12/19 08:23:07;;;;;;;51.08;22.13;;;;;;;;;;6276934;28;20036;-74
2023/12/19 08:26:12;;;;;;;40.58;19.13;;;;;;;;;;6294215;28;20043;-74
2023/12/19 08:29:14;;;;;;;36.95;20.65;;;;;;;;;;6281731;28;20113;-74
2023/12/19 08:32:17;;;;;;;52.25;23.88;;;;;;;;;;6291176;28;20127;-72
2023/12/19 08:35:19;;;;;;;56.72;26.95;;;;;;;;;;6305520;28;20067;-73
2023/12/19 08:38:21;;;;;;;57.90;27.90;;;;;;;;;;6289625;28;20052;-74
2023/12/19 08:41:24;;;;;;;85.60;41.17;;;;;;;;;;6309700;28;20059;-73
2023/12/19 08:44:29;;;;;;;80.35;37.35;;;;;;;;;;6318985;28;20074;-75
2023/12/19 08:47:31;;;;;;;;;;;;;;;;;;6308962;28;20048;-75
2023/12/19 08:50:34;;;;;;;73.85;33.00;;;;;;;;;;6311597;28;19943;-73
2023/12/19 08:53:36;;;;;;;68.63;36.22;;;;;;;;;;6289076;28;20870;-73
2023/12/19 08:56:38;;;;;;;73.82;39.28;;;;;;;;;;6312521;28;20048;-73
2023/12/19 08:59:42;;;;;;;76.20;37.63;;;;;;;;;;6277485;28;20547;-73
2023/12/19 09:02:45;;;;;;;65.82;35.92;;;;;;;;;;6311286;28;20412;-73
2023/12/19 09:05:47;;;;;;;68.13;32.30;;;;;;;;;;6291334;28;20055;-74
2023/12/19 09:08:49;;;;;;;66.28;33.45;;;;;;;;;;6272613;28;20109;-75
2023/12/19 09:11:51;;;;;;;62.03;34.33;;;;;;;;;;6306144;28;20040;-75
2023/12/19 09:14:54;;;;;;;48.92;25.55;;;;;;;;;;6306231;28;20054;-74
2023/12/19 09:17:56;;;;;;;48.30;27.15;;;;;;;;;;6300211;28;20055;-75
2023/12/19 09:21:00;;;;;;;34.97;19.45;;;;;;;;;;6307536;28;20040;-75
2023/12/19 09:24:04;;;;;;;55.25;28.70;;;;;;;;;;6312033;28;20051;-75
2023/12/19 09:27:06;;;;;;;32.97;17.42;;;;;;;;;;6288108;28;20044;-75
2023/12/19 09:30:10;;;;;;;38.00;19.83;;;;;;;;;;6311031;28;20040;-74
2023/12/19 09:33:12;;;;;;;41.08;20.40;;;;;;;;;;6276010;28;20048;-74
2023/12/19 09:36:21;;;;;;;53.78;28.38;;;;;;;;;;6292094;28;20055;-74
2023/12/19 09:39:23;;;;;;;46.60;21.15;;;;;;;;;;6288844;28;20161;-74
2023/12/19 09:42:27;;;;;;;36.13;18.73;;;;;;;;;;6261390;28;20134;-74
2023/12/19 09:45:29;;;;;;;47.47;20.95;;;;;;;;;;6299569;28;20044;-74
2023/12/19 09:48:35;;;;;;;40.58;25.13;;;;;;;;;;6312400;28;20769;-74
2023/12/19 09:51:42;;;;;;;19.80;13.80;;;;;;;;;;6277212;28;20043;-74
2023/12/19 09:54:44;;;;;;;56.55;32.30;;;;;;;;;;6275044;28;20648;-74
2023/12/19 09:57:47;;;;;;;38.47;21.27;;;;;;;;;;6274708;28;20044;-74
2023/12/19 10:00:52;;;;;;;36.30;19.63;;;;;;;;;;6276652;28;20047;-74
2023/12/19 10:03:55;;;;;;;41.42;21.60;;;;;;;;;;6292459;28;20525;-74
2023/12/19 10:06:58;;;;;;;32.13;19.10;;;;;;;;;;6282695;28;20509;-73
2023/12/19 10:10:02;;;;;;;37.30;20.35;;;;;;;;;;6289741;28;20040;-73
2023/12/19 10:13:06;;;;;;;40.60;23.08;;;;;;;;;;6306955;28;20056;-73
2023/12/19 10:16:11;;;;;;;43.13;23.67;;;;;;;;;;6288943;28;20059;-74
2023/12/19 10:19:34;;;;;;;38.72;22.98;;;;;;;;;;6293401;28;20422;-73
2023/12/19 10:22:37;;;;;;;37.20;21.85;;;;;;;;;;6302932;28;20147;-73
2023/12/19 10:25:40;;;;;;;41.85;25.00;;;;;;;;;;6308729;28;20048;-74
2023/12/19 10:28:55;;;;;;;43.83;23.60;;;;;;;;;;6321091;28;20198;-73
2023/12/19 10:32:11;;;;;;;38.85;24.67;;;;;;;;;;6275299;28;20040;-72
2023/12/19 10:35:13;;;;;;;40.75;22.92;;;;;;;;;;6320420;28;20039;-74
2023/12/19 10:38:15;;;;;;;47.15;26.52;;;;;;;;;;6299219;28;20044;-73
2023/12/19 10:41:22;;;;;;;38.92;23.65;;;;;;;;;;6288485;28;20043;-73
2023/12/19 10:44:24;;;;;;;32.35;20.25;;;;;;;;;;6282687;28;20063;-74
2023/12/19 10:47:27;;;;;;;37.47;21.55;;;;;;;;;;6315869;28;20147;-74
2023/12/19 10:50:29;;;;;;;32.55;21.00;;;;;;;;;;6309411;28;20166;-73
2023/12/19 10:53:34;;;;;;;32.38;20.38;;;;;;;;;;6295349;28;20048;-73
2023/12/19 10:57:02;;;;;;;27.23;14.95;;;;;;;;;;6260990;28;20043;-73
2023/12/19 11:00:10;;;;;;;19.48;13.25;;;;;;;;;;6283347;28;20716;-73
2023/12/19 11:03:27;;;;;;;17.77;12.27;;;;;;;;;;6283649;28;20070;-73
2023/12/19 11:06:31;;;;;;;17.33;9.50;;;;;;;;;;6321751;28;20045;-73
2023/12/19 11:09:35;;;;;;;20.90;11.73;;;;;;;;;;6311232;28;20127;-74
2023/12/19 11:12:37;;;;;;;15.88;9.25;;;;;;;;;;6319326;28;20498;-73
2023/12/19 11:15:52;;;;;;;19.20;12.13;;;;;;;;;;6279597;28;20143;-71
2023/12/19 11:19:03;;;;;;;20.45;12.48;;;;;;;;;;6259139;28;20122;-74
2023/12/19 11:22:39;;;;;;;20.38;13.25;;;;;;;;;;6289595;28;20095;-72
2023/12/19 11:25:45;;;;;;;18.83;10.75;;;;;;;;;;6304495;28;20043;-72
2023/12/19 11:28:49;;;;;;;16.25;9.88;;;;;;;;;;6291248;28;20044;-73
2023/12/19 11:31:52;;;;;;;20.83;12.52;;;;;;;;;;6318929;28;20043;-73
2023/12/19 11:35:14;;;;;;;14.68;9.18;;;;;;;;;;6275563;28;20055;-73
2023/12/19 11:38:47;;;;;;;15.93;9.90;;;;;;;;;;6307703;28;20040;-73
2023/12/19 11:41:49;;;;;;;14.25;9.50;;;;;;;;;;6310068;28;20625;-72
2023/12/19 11:44:51;;;;;;;18.48;10.60;;;;;;;;;;6319162;28;20679;-72
2023/12/19 11:47:55;;;;;;;18.50;12.07;;;;;;;;;;6276913;28;20071;-73
2023/12/19 11:50:57;;;;;;;17.88;11.27;;;;;;;;;;6292335;28;20036;-73
2023/12/19 11:53:59;;;;;;;18.63;11.27;;;;;;;;;;6300429;28;20230;-74
2023/12/19 11:57:01;;;;;;;24.35;16.67;;;;;;;;;;6278128;28;20752;-73
2023/12/19 12:00:06;;;;;;;26.20;15.95;;;;;;;;;;6292309;28;20047;-74
2023/12/19 12:03:16;;;;;;;47.30;27.25;;;;;;;;;;6283791;28;20108;-73
2023/12/19 12:06:19;;;;;;;39.75;22.48;;;;;;;;;;6277930;28;20031;-73
2023/12/19 12:09:22;;;;;;;97.35;58.67;;;;;;;;;;6295105;28;20055;-73
2023/12/19 12:12:32;;;;;;;30.80;19.05;;;;;;;;;;6309328;28;20093;-74
2023/12/19 12:15:34;;;;;;;19.63;11.77;;;;;;;;;;6294872;28;20044;-72
2023/12/19 12:18:36;;;;;;;18.35;11.02;;;;;;;;;;6314838;28;20050;-73
2023/12/19 12:21:57;;;;;;;15.82;10.60;;;;;;;;;;6293150;28;20545;-72
2023/12/19 12:25:00;;;;;;;19.20;11.95;;;;;;;;;;6294505;28;20189;-72
2023/12/19 12:28:10;;;;;;;17.67;12.32;;;;;;;;;;6312280;28;20051;-73
2023/12/19 12:31:13;;;;;;;22.58;15.20;;;;;;;;;;6278474;28;20052;-72
2023/12/19 12:34:15;;;;;;;18.73;11.57;;;;;;;;;;6288130;28;20167;-73
2023/12/19 12:37:18;;;;;;;16.08;10.05;;;;;;;;;;6312707;28;20037;-73
2023/12/19 12:40:20;;;;;;;18.55;12.75;;;;;;;;;;6310735;28;20054;-73
2023/12/19 12:43:51;;;;;;;29.13;18.25;;;;;;;;;;6275574;28;20826;-72
2023/12/19 12:46:53;;;;;;;20.67;14.85;;;;;;;;;;6282616;28;20043;-72
2023/12/19 12:50:03;;;;;;;28.17;18.70;;;;;;;;;;6312663;28;20050;-72
2023/12/19 12:53:12;;;;;;;30.02;19.13;;;;;;;;;;6316453;28;20047;-72
2023/12/19 12:56:18;;;;;;;18.88;13.10;;;;;;;;;;6314555;28;20706;-72
2023/12/19 12:59:24;;;;;;;22.15;13.05;;;;;;;;;;6280937;28;20132;-72
2023/12/19 13:02:29;;;;;;;17.08;11.48;;;;;;;;;;6289545;28;20474;-73
2023/12/19 13:05:32;;;;;;;17.42;10.93;;;;;;;;;;6295571;28;20128;-73
2023/12/19 13:08:35;;;;;;;20.65;12.68;;;;;;;;;;6292611;28;20531;-73
2023/12/19 13:11:37;;;;;;;15.63;10.68;;;;;;;;;;6307599;28;20040;-73
2023/12/19 13:14:40;;;;;;;17.42;13.20;;;;;;;;;;6293471;28;20043;-73
2023/12/19 13:17:42;;;;;;;18.05;10.50;;;;;;;;;;6329207;27;20055;-73
2023/12/19 13:20:44;;;;;;;16.17;9.73;;;;;;;;;;6326617;28;20040;-73
2023/12/19 13:23:47;;;;;;;38.92;26.30;;;;;;;;;;6289832;28;20048;-74
2023/12/19 13:26:49;;;;;;;20.58;14.88;;;;;;;;;;6298392;28;20517;-73
2023/12/19 13:29:53;;;;;;;21.92;15.85;;;;;;;;;;6258805;28;20056;-72
2023/12/19 13:32:55;;;;;;;17.17;12.30;;;;;;;;;;6322282;28;20065;-73
2023/12/19 13:35:58;;;;;;;17.92;12.20;;;;;;;;;;6278019;28;20074;-73
2023/12/19 13:39:00;;;;;;;16.27;10.45;;;;;;;;;;6304714;28;20048;-74
2023/12/19 13:42:05;;;;;;;20.10;12.82;;;;;;;;;;6276172;28;20048;-74
2023/12/19 13:45:07;;;;;;;22.63;11.88;;;;;;;;;;6295107;28;20767;-73
2023/12/19 13:48:09;;;;;;;18.15;12.70;;;;;;;;;;6283884;28;20043;-73
2023/12/19 13:51:12;;;;;;;18.95;12.23;;;;;;;;;;6297829;28;20551;-73
2023/12/19 13:54:14;;;;;;;16.75;13.15;;;;;;;;;;6312584;28;20865;-74
2023/12/19 13:57:16;;;;;;;15.77;12.27;;;;;;;;;;6300551;28;20047;-73
2023/12/19 14:00:20;;;;;;;20.23;12.77;;;;;;;;;;6305502;28;20598;-72
2023/12/19 14:03:32;;;;;;;23.13;14.68;;;;;;;;;;6314860;28;20036;-73
2023/12/19 14:06:34;;;;;;;16.23;11.50;;;;;;;;;;6315828;28;20048;-77
2023/12/19 14:09:37;;;;;;;21.50;13.25;;;;;;;;;;6310930;28;20523;-73
2023/12/19 14:12:39;;;;;;;21.70;14.05;;;;;;;;;;6260061;28;20527;-73
2023/12/19 14:15:41;;;;;;;20.58;15.13;;;;;;;;;;6297564;28;20562;-73
2023/12/19 14:18:43;;;;;;;21.90;14.98;;;;;;;;;;6299821;28;20051;-74
2023/12/19 14:21:50;;;;;;;23.13;13.65;;;;;;;;;;6273311;28;20593;-73
2023/12/19 14:24:54;;;;;;;18.70;13.20;;;;;;;;;;6315899;28;20133;-73
2023/12/19 14:27:56;;;;;;;22.55;13.75;;;;;;;;;;6290500;28;20040;-73
2023/12/19 14:30:59;;;;;;;24.38;15.52;;;;;;;;;;6305713;28;20047;-73
2023/12/19 14:34:02;;;;;;;27.90;17.15;;;;;;;;;;6294688;28;20080;-74
2023/12/19 14:37:04;;;;;;;59.17;35.42;;;;;;;;;;6285413;28;20052;-74
2023/12/19 14:40:07;;;;;;;56.00;36.72;;;;;;;;;;6306956;28;20438;-73
2023/12/19 14:43:10;;;;;;;29.65;19.33;;;;;;;;;;6271076;28;20506;-73
2023/12/19 14:46:13;;;;;;;30.30;16.63;;;;;;;;;;6290357;28;20056;-73
2023/12/19 14:49:16;;;;;;;32.67;17.77;;;;;;;;;;6290463;28;20048;-73
2023/12/19 14:52:19;;;;;;;30.88;16.70;;;;;;;;;;6297113;28;20179;-74
2023/12/19 14:55:21;;;;;;;28.73;16.00;;;;;;;;;;6309477;28;20063;-74
2023/12/19 14:58:24;;;;;;;27.92;15.93;;;;;;;;;;6273702;28;20145;-73
2023/12/19 15:01:28;;;;;;;31.50;18.67;;;;;;;;;;6314514;28;20323;-73
2023/12/19 15:04:32;;;;;;;32.67;16.83;;;;;;;;;;6307358;28;20044;-73
2023/12/19 15:07:35;;;;;;;29.30;17.63;;;;;;;;;;6272405;28;20527;-73
2023/12/19 15:10:38;;;;;;;26.50;17.50;;;;;;;;;;6303747;28;20707;-72
2023/12/19 15:13:40;;;;;;;25.60;15.50;;;;;;;;;;6291064;28;20056;-72
2023/12/19 15:16:43;;;;;;;28.45;16.52;;;;;;;;;;6298140;28;20882;-73
2023/12/19 15:19:45;;;;;;;23.92;14.90;;;;;;;;;;6297683;28;20138;-73
2023/12/19 15:22:48;;;;;;;22.45;12.90;;;;;;;;;;6313251;28;20067;-74
2023/12/19 15:25:50;;;;;;;24.17;15.38;;;;;;;;;;6319945;27;20067;-74
2023/12/19 15:28:52;;;;;;;33.60;22.25;;;;;;;;;;6275453;28;20510;-74
2023/12/19 15:31:55;;;;;;;23.90;16.25;;;;;;;;;;6296942;28;20068;-73
2023/12/19 15:34:58;;;;;;;27.13;16.15;;;;;;;;;;6323270;28;20602;-72
2023/12/19 15:38:00;;;;;;;32.65;15.93;;;;;;;;;;6313464;28;20521;-73
2023/12/19 15:41:03;;;;;;;34.05;21.38;;;;;;;;;;6318608;28;20539;-73
2023/12/19 15:44:05;;;;;;;32.30;20.65;;;;;;;;;;6321660;28;20044;-73
2023/12/19 15:47:12;;;;;;;27.80;15.80;;;;;;;;;;6304622;28;20052;-74
2023/12/19 15:50:14;;;;;;;34.75;19.20;;;;;;;;;;6311313;28;20052;-72
2023/12/19 15:53:16;;;;;;;34.67;19.73;;;;;;;;;;6289243;28;20177;-73
2023/12/19 15:56:25;;;;;;;29.67;16.90;;;;;;;;;;6312535;28;20660;-73
2023/12/19 15:59:28;;;;;;;29.27;16.85;;;;;;;;;;6294407;28;20066;-72
2023/12/19 16:02:30;;;;;;;29.95;16.52;;;;;;;;;;6309643;28;20040;-73
2023/12/19 16:05:46;;;;;;;37.60;17.77;;;;;;;;;;6307630;28;20083;-73
2023/12/19 16:08:48;;;;;;;32.25;18.05;;;;;;;;;;6293439;28;20044;-73
2023/12/19 16:11:50;;;;;;;33.70;18.45;;;;;;;;;;6291881;28;20047;-72
2023/12/19 16:14:53;;;;;;;29.45;16.55;;;;;;;;;;6305531;28;20051;-72
2023/12/19 16:17:55;;;;;;;34.80;20.23;;;;;;;;;;6313164;28;20419;-72
2023/12/19 16:20:57;;;;;;;32.10;18.80;;;;;;;;;;6297074;28;20043;-73
2023/12/19 16:24:00;;;;;;;80.20;34.03;;;;;;;;;;6281282;28;20139;-74
2023/12/19 16:27:07;;;;;;;39.53;19.77;;;;;;;;;;6279082;28;20043;-73
2023/12/19 16:30:10;;;;;;;27.25;17.08;;;;;;;;;;6313911;28;20051;-73
2023/12/19 16:33:12;;;;;;;34.25;17.50;;;;;;;;;;6294722;28;20205;-73
2023/12/19 16:36:14;;;;;;;36.45;18.90;;;;;;;;;;6325256;27;20048;-73
2023/12/19 16:39:16;;;;;;;33.22;17.55;;;;;;;;;;6299367;28;20125;-73
2023/12/19 16:42:18;;;;;;;40.45;22.27;;;;;;;;;;6281320;28;20035;-73
2023/12/19 16:45:21;;;;;;;51.13;25.48;;;;;;;;;;6276009;28;20060;-73
2023/12/19 16:48:23;;;;;;;42.03;26.42;;;;;;;;;;6330556;27;20781;-73
2023/12/19 16:51:26;;;;;;;39.80;23.98;;;;;;;;;;6311880;28;20454;-73
2023/12/19 16:54:28;;;;;;;46.63;25.23;;;;;;;;;;6318388;28;20078;-73
2023/12/19 16:57:35;;;;;;;34.03;20.55;;;;;;;;;;6311452;28;20054;-72
2023/12/19 17:00:38;;;;;;;35.03;22.63;;;;;;;;;;6282262;28;20049;-71
2023/12/19 17:03:41;;;;;;;38.40;22.95;;;;;;;;;;6296430;28;20104;-71
2023/12/19 17:06:44;;;;;;;34.05;19.65;;;;;;;;;;6301384;28;20035;-71
2023/12/19 17:09:47;;;;;;;51.33;24.75;;;;;;;;;;6274028;28;20052;-72
2023/12/19 17:12:49;;;;;;;36.55;19.77;;;;;;;;;;6293189;28;20051;-72
2023/12/19 17:15:51;;;;;;;33.78;20.40;;;;;;;;;;6274259;28;20104;-72
2023/12/19 17:18:53;;;;;;;41.25;22.98;;;;;;;;;;6322821;27;20052;-76
2023/12/19 17:21:55;;;;;;;52.20;28.42;;;;;;;;;;6291276;28;20598;-71
2023/12/19 17:24:57;;;;;;;51.05;31.23;;;;;;;;;;6308266;28;20044;-72
2023/12/19 17:28:00;;;;;;;85.68;40.22;;;;;;;;;;6287242;28;22060;-71
2023/12/19 17:31:02;;;;;;;41.25;26.05;;;;;;;;;;6288374;28;20040;-71
2023/12/19 17:34:04;;;;;;;48.30;28.60;;;;;;;;;;6306879;28;20511;-72
2023/12/19 17:37:07;;;;;;;54.28;30.35;;;;;;;;;;6316009;28;20103;-72
2023/12/19 17:40:09;;;;;;;61.63;33.17;;;;;;;;;;6306824;28;20044;-73
2023/12/19 17:43:12;;;;;;;53.45;29.13;;;;;;;;;;6325288;27;20044;-72
2023/12/19 17:46:17;;;;;;;41.40;24.55;;;;;;;;;;6294180;28;20106;-72
2023/12/19 17:49:20;;;;;;;53.92;29.25;;;;;;;;;;6315653;28;20044;-72